RLSO2: Arkansas River, Ralston, OK

Data processed at Fri Jun 15 2018 23:20


All information presented herein is the property of the government of the United States of America and may be revised or deleted at any time without prior notice.
Dissemination of this information without the expressed written consent of the Public Affairs Office, Tulsa District U.S. Army Corps of Engineers is strictly prohibited.
These data are gathered electronically and, as presented, have not undergone any form of quality control. These data are not guaranteed to be valid or correct.
Go to home page.
Go to station list.

Upstream stations:

Downstream station:
Previous Day
Next Day
Current Day
    
SHEF ID:       RLSO2     Arkansas River at Ralston, OK
STATION TYPE:  

               PRECIP     STAGE  RIV-FLOW  BAT-LOAD
                   in        ft       cfs      volt
              Ccp-Rev   Ccp-Rev   Ccp-Rev   Ccp-Rev
(US/Central)
06/13 00:00      0.00      6.02      6321     12.65
06/13 01:00      0.00      5.96      6106     12.65
06/13 02:00      0.00      5.88      5824     12.65
06/13 03:00      0.00      5.79      5515     12.65
06/13 04:00      0.00      5.70      5212     12.65
06/13 05:00      0.00      5.58      4821     12.57
06/13 06:00      0.00      5.47      4474     12.57
06/13 07:00      0.00      5.36      4140     12.57
06/13 08:00      0.00      5.27      3870     12.65
06/13 09:00      0.00      5.17      3580     12.97
06/13 10:00      0.00      5.11      3411     13.29
06/13 11:00      0.00      5.06      3273     13.68
06/13 12:00      0.00      5.10      3384     13.68
06/13 13:00      0.00      5.18      3609     13.60
06/13 14:00      0.00      5.37      4170     13.60
06/13 15:00      0.00      5.54      4693     13.53
06/13 16:00      0.00      5.76      5413     13.53
06/13 17:00      0.00      5.87      5789     13.21
06/13 18:00      0.00      5.97      6141     13.13
06/13 19:00      0.00      6.12      6687     13.05
06/13 20:00      0.00      6.14      6761     13.05
06/13 21:00      0.00      6.17      6874     12.89
06/13 22:00      0.00      6.16      6836     12.65
06/13 23:00      0.00      6.12      6687     12.65